createdAt,value
2023-11-30T00:01:35.822Z,91.90
2023-11-30T00:04:38.459Z,92.31
2023-11-30T00:07:41.360Z,92.60
2023-11-30T00:10:44.043Z,92.57
2023-11-30T00:13:46.694Z,93.49
2023-11-30T00:16:49.368Z,93.26
2023-11-30T00:19:52.053Z,93.18
2023-11-30T00:22:54.735Z,93.16
2023-11-30T00:25:57.329Z,92.80
2023-11-30T00:29:00.250Z,93.20
2023-11-30T00:32:02.876Z,93.07
2023-11-30T00:35:06.074Z,93.16
2023-11-30T00:38:08.792Z,93.31
2023-11-30T00:41:18.072Z,93.33
2023-11-30T00:44:22.615Z,93.69
2023-11-30T00:47:25.397Z,93.94
2023-11-30T00:50:28.154Z,94.14
2023-11-30T00:53:31.364Z,94.52
2023-11-30T00:56:34.020Z,94.66
2023-11-30T00:59:36.623Z,94.52
2023-11-30T01:02:39.934Z,94.18
2023-11-30T01:05:43.240Z,94.02
2023-11-30T01:08:45.880Z,93.64
2023-11-30T01:11:48.554Z,93.52
2023-11-30T01:14:51.474Z,93.83
2023-11-30T01:17:54.286Z,94.29
2023-11-30T01:20:57.956Z,95.09
2023-11-30T01:24:00.744Z,94.97
2023-11-30T01:27:03.642Z,95.19
2023-11-30T01:30:06.835Z,95.17
2023-11-30T01:33:09.604Z,94.33
2023-11-30T01:36:12.421Z,93.65
2023-11-30T01:39:16.875Z,94.00
2023-11-30T01:42:19.605Z,94.10
2023-11-30T01:45:22.343Z,94.10
2023-11-30T01:48:25.271Z,94.84
2023-11-30T01:51:28.478Z,94.59
2023-11-30T01:54:31.577Z,94.36
2023-11-30T01:57:34.371Z,94.17
2023-11-30T02:00:38.081Z,94.25
2023-11-30T02:03:41.432Z,93.90
2023-11-30T02:06:47.716Z,93.35
2023-11-30T02:09:50.447Z,93.31
2023-11-30T02:12:53.118Z,93.43
2023-11-30T02:15:55.745Z,93.10
2023-11-30T02:18:58.900Z,93.24
2023-11-30T02:22:01.595Z,93.70
2023-11-30T02:25:04.532Z,93.79
2023-11-30T02:28:07.229Z,94.13
2023-11-30T02:31:10.017Z,94.05
2023-11-30T02:34:12.639Z,93.61
2023-11-30T02:37:15.319Z,92.86
2023-11-30T02:40:17.960Z,93.21
2023-11-30T02:43:20.662Z,92.15
2023-11-30T02:46:23.451Z,91.51
2023-11-30T02:49:26.098Z,90.82
2023-11-30T02:52:28.725Z,89.60
2023-11-30T02:55:31.356Z,89.02
2023-11-30T02:58:33.966Z,88.17
2023-11-30T03:01:46.855Z,88.13
2023-11-30T03:04:49.557Z,87.87
2023-11-30T03:07:53.133Z,88.29
2023-11-30T03:10:55.793Z,88.55
2023-11-30T03:13:58.448Z,88.68
2023-11-30T03:17:01.225Z,88.45
2023-11-30T03:20:04.003Z,88.73
2023-11-30T03:23:06.659Z,89.09
2023-11-30T03:26:09.294Z,89.52
2023-11-30T03:29:12.219Z,89.19
2023-11-30T03:32:15.296Z,89.43
2023-11-30T03:35:17.942Z,88.93
2023-11-30T03:38:20.668Z,87.58
2023-11-30T03:41:24.860Z,86.16
2023-11-30T03:44:27.618Z,85.64
2023-11-30T03:47:30.291Z,84.74
2023-11-30T03:50:33.009Z,85.48
2023-11-30T03:53:35.821Z,85.38
2023-11-30T03:56:38.588Z,85.76
2023-11-30T03:59:41.248Z,85.46
2023-11-30T04:02:44.048Z,85.60
2023-11-30T04:05:46.734Z,86.08
2023-11-30T04:08:52.659Z,86.56
2023-11-30T04:11:55.626Z,86.04
2023-11-30T04:14:58.344Z,85.50
2023-11-30T04:18:01.409Z,85.06
2023-11-30T04:21:06.909Z,85.43
2023-11-30T04:24:09.774Z,85.32
2023-11-30T04:27:13.267Z,86.07
2023-11-30T04:30:16.116Z,86.24
2023-11-30T04:33:19.135Z,86.02
2023-11-30T04:36:21.846Z,85.71
2023-11-30T04:39:25.371Z,85.31
2023-11-30T04:42:29.353Z,85.38
2023-11-30T04:45:32.479Z,85.10
2023-11-30T04:48:35.186Z,84.67
2023-11-30T04:51:38.484Z,84.98
2023-11-30T04:54:41.275Z,84.76
2023-11-30T04:57:43.978Z,84.85
2023-11-30T05:00:46.659Z,84.44
2023-11-30T05:03:49.450Z,84.44
2023-11-30T05:06:52.199Z,85.37
2023-11-30T05:09:55.031Z,85.31
2023-11-30T05:12:57.731Z,85.39
2023-11-30T05:16:01.151Z,85.32
2023-11-30T05:19:03.785Z,84.88
2023-11-30T05:22:06.401Z,85.28
2023-11-30T05:25:09.231Z,84.64
2023-11-30T05:28:11.934Z,85.02
2023-11-30T05:31:14.835Z,85.87
2023-11-30T05:34:17.645Z,85.93
2023-11-30T05:37:20.411Z,86.85
2023-11-30T05:40:23.030Z,87.56
2023-11-30T05:43:25.738Z,86.08
2023-11-30T05:46:28.357Z,86.70
2023-11-30T05:49:30.967Z,86.31
2023-11-30T05:52:33.655Z,86.68
2023-11-30T05:55:37.023Z,86.38
2023-11-30T05:58:39.826Z,86.30
2023-11-30T06:01:42.514Z,87.06
2023-11-30T06:04:53.116Z,87.18
2023-11-30T06:07:55.937Z,87.49
2023-11-30T06:10:58.612Z,87.70
2023-11-30T06:14:02.004Z,88.30
2023-11-30T06:17:05.173Z,88.82
2023-11-30T06:20:11.792Z,88.61
2023-11-30T06:23:14.685Z,88.85
2023-11-30T06:26:17.360Z,89.45
2023-11-30T06:29:20.317Z,88.87
2023-11-30T06:32:23.628Z,89.66
2023-11-30T06:35:27.228Z,89.25
2023-11-30T06:38:31.054Z,90.08
2023-11-30T06:41:33.726Z,89.75
2023-11-30T06:44:36.497Z,89.76
2023-11-30T06:47:39.627Z,88.93
2023-11-30T06:50:42.321Z,88.43
2023-11-30T06:53:46.512Z,88.06
2023-11-30T06:56:49.982Z,88.11
2023-11-30T06:59:54.203Z,88.11
2023-11-30T07:02:57.033Z,88.93
2023-11-30T07:06:02.861Z,89.19
2023-11-30T07:09:07.123Z,88.94
2023-11-30T07:12:12.924Z,88.17
2023-11-30T07:15:17.339Z,87.96
2023-11-30T07:18:21.244Z,86.72
2023-11-30T07:21:24.138Z,86.42
2023-11-30T07:24:26.894Z,85.62
2023-11-30T07:27:29.680Z,87.21
2023-11-30T07:30:32.447Z,86.40
2023-11-30T07:33:40.974Z,86.95
2023-11-30T07:36:43.853Z,86.99
2023-11-30T07:39:46.830Z,87.72
2023-11-30T07:42:57.465Z,87.08
2023-11-30T07:46:01.059Z,86.64
2023-11-30T07:49:05.718Z,86.09
2023-11-30T07:52:08.753Z,84.26
2023-11-30T07:55:14.864Z,83.95
2023-11-30T07:58:19.026Z,84.37
2023-11-30T08:01:21.767Z,84.87
2023-11-30T08:04:24.657Z,84.51
2023-11-30T08:07:27.874Z,84.28
2023-11-30T08:10:30.580Z,83.44
2023-11-30T08:13:34.653Z,82.81
2023-11-30T08:16:39.895Z,84.04
2023-11-30T08:19:44.446Z,82.90
2023-11-30T08:22:47.102Z,84.30
2023-11-30T08:25:49.847Z,84.44
2023-11-30T08:28:52.562Z,84.95
2023-11-30T08:31:55.236Z,83.69
2023-11-30T08:34:57.906Z,85.44
2023-11-30T08:38:00.578Z,86.32
2023-11-30T08:41:04.473Z,85.40
2023-11-30T08:44:07.225Z,86.27
2023-11-30T08:47:09.923Z,85.38
2023-11-30T08:50:13.299Z,85.87
2023-11-30T08:53:17.269Z,87.28
2023-11-30T08:56:20.269Z,87.69
2023-11-30T08:59:22.940Z,87.37
2023-11-30T09:02:25.961Z,87.51
2023-11-30T09:05:28.749Z,87.04
2023-11-30T09:08:31.532Z,86.74
2023-11-30T09:11:35.464Z,87.83
2023-11-30T09:14:38.410Z,86.95
2023-11-30T09:17:41.675Z,88.00
2023-11-30T09:20:45.268Z,89.37
2023-11-30T09:23:47.931Z,90.12
2023-11-30T09:26:52.787Z,90.68
2023-11-30T09:29:57.477Z,91.21
2023-11-30T09:33:00.505Z,91.93
2023-11-30T09:36:03.572Z,91.36
2023-11-30T09:39:09.324Z,92.15
2023-11-30T09:42:17.467Z,92.05
2023-11-30T09:45:21.424Z,92.21
2023-11-30T09:48:24.412Z,92.65
2023-11-30T09:51:39.734Z,93.32
2023-11-30T09:54:43.368Z,93.46
2023-11-30T09:57:46.164Z,93.27
2023-11-30T10:00:49.090Z,92.88
2023-11-30T10:03:54.373Z,91.30
2023-11-30T10:06:57.901Z,90.38
2023-11-30T10:10:05.011Z,90.33
2023-11-30T10:13:09.277Z,91.57
2023-11-30T10:16:12.205Z,92.91
2023-11-30T10:19:15.062Z,93.96
2023-11-30T10:22:17.796Z,94.43
2023-11-30T10:25:22.072Z,96.24
2023-11-30T10:28:24.944Z,94.41
2023-11-30T10:31:30.604Z,93.77
2023-11-30T10:34:43.993Z,93.79
2023-11-30T10:37:51.603Z,93.51
2023-11-30T10:41:00.952Z,92.66
2023-11-30T10:44:06.200Z,92.43
2023-11-30T10:47:12.518Z,92.11
2023-11-30T10:50:16.627Z,92.09
2023-11-30T10:53:36.811Z,92.73
2023-11-30T10:56:40.253Z,93.27
2023-11-30T10:59:49.348Z,92.28
2023-11-30T11:02:53.442Z,94.75
2023-11-30T11:05:57.430Z,94.93
2023-11-30T11:09:02.243Z,92.61
2023-11-30T11:12:05.366Z,92.92
2023-11-30T11:15:15.797Z,93.04
2023-11-30T11:18:19.718Z,94.47
2023-11-30T11:21:26.704Z,94.75
2023-11-30T11:24:30.766Z,94.96
2023-11-30T11:27:34.640Z,95.02
2023-11-30T11:30:45.549Z,95.16
2023-11-30T11:33:49.898Z,95.58
2023-11-30T11:36:52.609Z,95.07
2023-11-30T11:39:56.344Z,95.27
2023-11-30T11:43:00.649Z,95.36
2023-11-30T11:46:03.475Z,96.17
2023-11-30T11:49:06.308Z,95.83
2023-11-30T11:52:10.257Z,95.86
2023-11-30T11:55:14.914Z,97.34
2023-11-30T11:58:17.599Z,97.28
2023-11-30T12:01:20.314Z,97.80
2023-11-30T12:04:27.641Z,97.80
2023-11-30T12:07:30.330Z,96.96
2023-11-30T12:10:40.761Z,96.04
2023-11-30T12:13:43.690Z,95.16
2023-11-30T12:16:46.431Z,95.35
2023-11-30T12:19:49.102Z,95.37
2023-11-30T12:22:52.492Z,97.00
2023-11-30T12:25:56.648Z,96.41
2023-11-30T12:28:59.621Z,96.65
2023-11-30T12:32:02.454Z,95.77
2023-11-30T12:35:06.152Z,95.24
2023-11-30T12:38:09.500Z,95.81
2023-11-30T12:41:12.179Z,97.06
2023-11-30T12:44:14.973Z,97.77
2023-11-30T12:47:17.648Z,96.91
2023-11-30T12:50:20.832Z,96.87
2023-11-30T12:53:23.585Z,97.15
2023-11-30T12:56:28.860Z,97.02
2023-11-30T12:59:31.637Z,97.42
2023-11-30T13:02:34.375Z,96.88
2023-11-30T13:05:37.060Z,96.57
2023-11-30T13:08:39.720Z,96.40
2023-11-30T13:11:43.475Z,96.32
2023-11-30T13:14:46.102Z,97.47
2023-11-30T13:17:49.356Z,97.02
2023-11-30T13:20:52.110Z,97.91
2023-11-30T13:23:54.765Z,98.43
2023-11-30T13:26:57.417Z,99.59
2023-11-30T13:30:01.146Z,99.93
2023-11-30T13:33:05.719Z,99.90
2023-11-30T13:36:09.183Z,100.00
2023-11-30T13:39:12.135Z,100.00
2023-11-30T13:42:14.857Z,100.00
2023-11-30T13:45:17.731Z,100.00
2023-11-30T13:48:20.541Z,100.00
2023-11-30T13:51:23.639Z,100.00
2023-11-30T13:54:26.559Z,100.00
2023-11-30T13:57:29.400Z,99.97
2023-11-30T14:00:35.475Z,100.00
2023-11-30T14:03:38.916Z,100.00
2023-11-30T14:06:42.262Z,100.00
2023-11-30T14:09:45.320Z,100.00
2023-11-30T14:12:48.556Z,100.00
2023-11-30T14:15:51.357Z,100.00
2023-11-30T14:18:54.087Z,100.00
2023-11-30T14:21:56.831Z,100.00
2023-11-30T14:25:00.438Z,100.00
2023-11-30T14:28:07.821Z,100.00
2023-11-30T14:31:19.481Z,100.00
2023-11-30T14:34:22.372Z,100.00
2023-11-30T14:37:25.119Z,100.00
2023-11-30T14:40:28.189Z,100.00
2023-11-30T14:43:31.111Z,100.00
2023-11-30T14:46:35.216Z,100.00
2023-11-30T14:49:39.052Z,100.00
2023-11-30T14:52:45.475Z,100.00
2023-11-30T14:55:49.594Z,100.00
2023-11-30T14:58:52.757Z,100.00
2023-11-30T15:01:55.531Z,100.00
2023-11-30T15:04:58.323Z,100.00
2023-11-30T15:08:00.964Z,100.00
2023-11-30T15:11:03.823Z,100.00
2023-11-30T15:14:06.766Z,100.00
2023-11-30T15:17:11.201Z,100.00
2023-11-30T15:20:14.545Z,100.00
2023-11-30T15:23:17.446Z,100.00
2023-11-30T15:26:20.035Z,100.00
2023-11-30T15:29:22.747Z,100.00
2023-11-30T15:32:25.438Z,100.00
2023-11-30T15:35:29.776Z,100.00
2023-11-30T15:38:34.107Z,100.00
2023-11-30T15:41:40.847Z,100.00
2023-11-30T15:44:43.702Z,100.00
2023-11-30T15:47:46.608Z,100.00
2023-11-30T15:50:49.343Z,100.00
2023-11-30T15:53:52.836Z,100.00
2023-11-30T15:56:58.044Z,100.00
2023-11-30T16:00:00.724Z,100.00
2023-11-30T16:03:05.769Z,100.00
2023-11-30T16:06:12.058Z,100.00
2023-11-30T16:09:14.764Z,100.00
2023-11-30T16:12:17.468Z,100.00
2023-11-30T16:15:20.209Z,100.00
2023-11-30T16:18:23.415Z,100.00
2023-11-30T16:21:28.710Z,100.00
2023-11-30T16:24:31.992Z,100.00
2023-11-30T16:27:34.692Z,100.00
2023-11-30T16:30:37.403Z,100.00
2023-11-30T16:33:43.156Z,100.00
2023-11-30T16:36:46.804Z,100.00
2023-11-30T16:39:49.742Z,100.00
2023-11-30T16:42:52.510Z,100.00
2023-11-30T16:45:55.322Z,100.00
2023-11-30T16:48:59.224Z,100.00
2023-11-30T16:52:02.023Z,100.00
2023-11-30T16:55:05.395Z,100.00
2023-11-30T16:58:08.035Z,100.00
2023-11-30T17:01:11.340Z,100.00
2023-11-30T17:04:14.179Z,100.00
2023-11-30T17:07:16.822Z,100.00
2023-11-30T17:10:19.486Z,100.00
2023-11-30T17:13:23.613Z,100.00
2023-11-30T17:16:26.428Z,100.00
2023-11-30T17:19:29.157Z,100.00
2023-11-30T17:22:31.881Z,100.00
2023-11-30T17:25:34.474Z,100.00
2023-11-30T17:28:37.508Z,100.00
2023-11-30T17:31:40.223Z,100.00
2023-11-30T17:34:43.156Z,100.00
2023-11-30T17:37:45.947Z,100.00
2023-11-30T17:40:48.666Z,100.00
2023-11-30T17:43:51.391Z,100.00
2023-11-30T17:46:54.346Z,100.00
2023-11-30T17:49:57.199Z,100.00
2023-11-30T17:53:02.001Z,100.00
2023-11-30T17:56:05.100Z,100.00
2023-11-30T17:59:07.818Z,100.00
2023-11-30T18:02:10.826Z,100.00
2023-11-30T18:05:13.774Z,100.00
2023-11-30T18:08:16.444Z,100.00
2023-11-30T18:11:19.428Z,100.00
2023-11-30T18:14:23.553Z,100.00
2023-11-30T18:17:26.319Z,100.00
2023-11-30T18:20:29.101Z,100.00
2023-11-30T18:23:31.747Z,100.00
2023-11-30T18:26:34.443Z,100.00
2023-11-30T18:29:37.134Z,100.00
2023-11-30T18:32:43.169Z,100.00
2023-11-30T18:35:46.694Z,100.00
2023-11-30T18:38:51.574Z,100.00
2023-11-30T18:41:56.336Z,100.00
2023-11-30T18:44:59.135Z,100.00
2023-11-30T18:48:01.941Z,100.00
2023-11-30T18:51:06.822Z,100.00
2023-11-30T18:54:09.564Z,100.00
2023-11-30T18:57:12.241Z,100.00
2023-11-30T19:00:15.580Z,100.00
2023-11-30T19:03:18.285Z,100.00
2023-11-30T19:06:22.472Z,100.00
2023-11-30T19:09:25.229Z,100.00
2023-11-30T19:12:27.915Z,100.00
2023-11-30T19:15:34.030Z,100.00
2023-11-30T19:18:36.862Z,100.00
2023-11-30T19:21:43.644Z,100.00
2023-11-30T19:24:46.415Z,100.00
2023-11-30T19:27:49.254Z,100.00
2023-11-30T19:30:51.949Z,100.00
2023-11-30T19:33:54.667Z,100.00
2023-11-30T19:36:57.471Z,100.00
2023-11-30T19:40:02.279Z,100.00
2023-11-30T19:43:05.427Z,100.00
2023-11-30T19:46:08.163Z,100.00
2023-11-30T19:49:10.905Z,100.00
2023-11-30T19:52:13.815Z,100.00
2023-11-30T19:55:16.521Z,100.00
2023-11-30T19:58:19.158Z,100.00
2023-11-30T20:01:25.023Z,100.00
2023-11-30T20:04:28.521Z,100.00
2023-11-30T20:07:31.262Z,100.00
2023-11-30T20:10:33.923Z,100.00
2023-11-30T20:13:36.715Z,100.00
2023-11-30T20:16:43.104Z,100.00
2023-11-30T20:19:45.854Z,100.00
2023-11-30T20:22:48.491Z,100.00
2023-11-30T20:25:51.659Z,100.00
2023-11-30T20:28:54.314Z,100.00
2023-11-30T20:31:56.998Z,100.00
2023-11-30T20:34:59.673Z,100.00
2023-11-30T20:38:02.499Z,100.00
2023-11-30T20:41:05.535Z,100.00
2023-11-30T20:44:08.334Z,100.00
2023-11-30T20:47:10.982Z,100.00
2023-11-30T20:50:13.729Z,100.00
2023-11-30T20:53:16.388Z,100.00
2023-11-30T20:56:19.125Z,100.00
2023-11-30T20:59:21.763Z,100.00
2023-11-30T21:02:24.615Z,100.00
2023-11-30T21:05:27.503Z,100.00
2023-11-30T21:08:33.650Z,100.00
2023-11-30T21:11:42.421Z,100.00
2023-11-30T21:14:46.123Z,100.00
2023-11-30T21:17:48.819Z,100.00
2023-11-30T21:20:51.615Z,100.00
2023-11-30T21:23:54.398Z,100.00
2023-11-30T21:26:57.142Z,100.00
2023-11-30T21:30:00.037Z,100.00
2023-11-30T21:33:02.794Z,100.00
2023-11-30T21:36:05.983Z,100.00
2023-11-30T21:39:10.139Z,100.00
2023-11-30T21:42:12.838Z,100.00
2023-11-30T21:45:15.575Z,100.00
2023-11-30T21:48:18.344Z,100.00
2023-11-30T21:51:21.020Z,100.00
2023-11-30T21:54:23.667Z,100.00
2023-11-30T21:57:26.637Z,100.00
2023-11-30T22:00:29.400Z,100.00
2023-11-30T22:03:32.315Z,100.00
2023-11-30T22:06:35.171Z,100.00
2023-11-30T22:09:39.150Z,100.00
2023-11-30T22:12:42.502Z,100.00
2023-11-30T22:15:45.234Z,100.00
2023-11-30T22:18:47.964Z,100.00
2023-11-30T22:21:50.649Z,100.00
2023-11-30T22:24:53.372Z,100.00
2023-11-30T22:27:56.243Z,100.00
2023-11-30T22:30:59.807Z,100.00
2023-11-30T22:34:02.660Z,100.00
2023-11-30T22:37:05.475Z,100.00
2023-11-30T22:40:09.128Z,100.00
2023-11-30T22:43:11.830Z,100.00
2023-11-30T22:46:19.105Z,100.00
2023-11-30T22:49:22.188Z,100.00
2023-11-30T22:52:26.765Z,100.00
2023-11-30T22:55:29.647Z,100.00
2023-11-30T22:58:32.386Z,100.00
2023-11-30T23:01:35.563Z,100.00
2023-11-30T23:04:39.636Z,100.00
2023-11-30T23:07:44.260Z,100.00
2023-11-30T23:10:46.899Z,100.00
2023-11-30T23:13:49.524Z,100.00
2023-11-30T23:16:52.210Z,100.00
2023-11-30T23:19:54.866Z,100.00
2023-11-30T23:22:57.519Z,100.00
2023-11-30T23:26:01.054Z,100.00
2023-11-30T23:29:04.352Z,100.00
2023-11-30T23:32:07.840Z,100.00
2023-11-30T23:35:10.455Z,100.00
2023-11-30T23:38:13.136Z,100.00
2023-11-30T23:41:15.885Z,100.00
2023-11-30T23:44:18.574Z,100.00
2023-11-30T23:47:21.226Z,100.00
2023-11-30T23:50:23.906Z,100.00
2023-11-30T23:53:26.560Z,100.00
2023-11-30T23:56:29.189Z,100.00
2023-11-30T23:59:31.926Z,100.00
